createdAt,value
2022-10-11T00:01:35.429Z,39.58
2022-10-11T00:04:02.282Z,36.72
2022-10-11T00:06:28.949Z,37.80
2022-10-11T00:08:55.767Z,38.70
2022-10-11T00:11:22.482Z,44.95
2022-10-11T00:13:49.156Z,44.25
2022-10-11T00:16:15.852Z,46.25
2022-10-11T00:18:42.911Z,40.53
2022-10-11T00:21:12.928Z,40.10
2022-10-11T00:23:40.678Z,48.53
2022-10-11T00:26:09.542Z,44.15
2022-10-11T00:28:37.695Z,45.58
2022-10-11T00:31:13.374Z,44.30
2022-10-11T00:36:08.609Z,42.28
2022-10-11T00:38:36.100Z,40.38
2022-10-11T00:41:02.902Z,42.63
2022-10-11T00:43:31.579Z,40.70
2022-10-11T00:45:58.231Z,39.58
2022-10-11T00:48:32.515Z,38.65
2022-10-11T00:51:02.800Z,36.03
2022-10-11T00:53:31.739Z,37.88
2022-10-11T00:56:07.379Z,36.63
2022-10-11T00:58:36.308Z,43.22
2022-10-11T01:01:03.689Z,39.95
2022-10-11T01:03:31.535Z,44.83
2022-10-11T01:05:58.292Z,41.72
2022-10-11T01:08:26.963Z,38.40
2022-10-11T01:10:54.123Z,40.58
2022-10-11T01:13:23.756Z,47.78
2022-10-11T01:16:13.750Z,43.65
2022-10-11T01:19:03.472Z,44.47
2022-10-11T01:21:44.219Z,40.75
2022-10-11T01:24:27.240Z,45.45
2022-10-11T01:27:09.672Z,42.45
2022-10-11T01:29:42.359Z,47.00
2022-10-11T01:32:21.847Z,43.55
2022-10-11T01:34:56.020Z,48.08
2022-10-11T01:37:38.838Z,46.63
2022-10-11T01:40:29.329Z,43.78
2022-10-11T01:42:57.390Z,42.30
2022-10-11T01:45:25.510Z,42.25
2022-10-11T01:48:13.230Z,44.42
2022-10-11T01:50:51.987Z,45.22
2022-10-11T01:53:37.864Z,40.80
2022-10-11T01:56:29.045Z,33.58
2022-10-11T01:59:14.767Z,40.85
2022-10-11T02:01:55.459Z,40.78
2022-10-11T02:04:37.848Z,34.70
2022-10-11T02:07:30.711Z,39.38
2022-10-11T02:10:07.117Z,37.72
2022-10-11T02:12:48.522Z,39.95
2022-10-11T02:15:17.240Z,40.53
2022-10-11T02:17:49.294Z,40.20
2022-10-11T02:20:20.905Z,45.10
2022-10-11T02:22:52.360Z,44.80
2022-10-11T02:25:26.356Z,45.92
2022-10-11T02:27:56.617Z,42.00
2022-10-11T02:30:23.477Z,42.28
2022-10-11T02:32:52.701Z,46.33
2022-10-11T02:35:20.113Z,45.85
2022-10-11T02:38:05.481Z,49.08
2022-10-11T02:40:43.183Z,41.15
2022-10-11T02:43:24.005Z,47.85
2022-10-11T02:46:00.347Z,47.42
2022-10-11T02:48:29.311Z,41.75
2022-10-11T02:50:57.233Z,40.75
2022-10-11T02:53:25.368Z,41.53
2022-10-11T02:55:54.056Z,43.15
2022-10-11T02:58:21.907Z,45.17
2022-10-11T03:00:49.106Z,44.22
2022-10-11T03:03:15.899Z,40.67
2022-10-11T03:05:43.530Z,38.97
2022-10-11T03:08:16.112Z,43.30
2022-10-11T03:10:43.555Z,41.65
2022-10-11T03:13:11.456Z,40.50
2022-10-11T03:15:40.448Z,51.60
2022-10-11T03:18:07.094Z,49.70
2022-10-11T03:20:33.828Z,45.58
2022-10-11T03:23:00.494Z,50.08
2022-10-11T03:25:27.159Z,51.65
2022-10-11T03:27:53.855Z,47.22
2022-10-11T03:30:20.677Z,46.10
2022-10-11T03:32:47.459Z,44.85
2022-10-11T03:35:14.465Z,43.63
2022-10-11T03:37:41.192Z,44.97
2022-10-11T03:40:08.852Z,43.40
2022-10-11T03:42:36.428Z,47.70
2022-10-11T03:45:07.912Z,44.25
2022-10-11T03:47:38.804Z,41.50
2022-10-11T03:50:07.123Z,40.97
2022-10-11T03:52:35.143Z,44.33
2022-10-11T03:55:01.846Z,41.33
2022-10-11T03:57:28.559Z,44.25
2022-10-11T03:59:55.219Z,43.67
2022-10-11T04:02:21.965Z,42.67
2022-10-11T04:04:48.711Z,43.17
2022-10-11T04:07:15.459Z,43.70
2022-10-11T04:09:42.221Z,44.67
2022-10-11T04:12:08.951Z,46.03
2022-10-11T04:14:35.630Z,42.28
2022-10-11T04:17:02.281Z,49.70
2022-10-11T04:19:29.080Z,45.88
2022-10-11T04:21:56.221Z,40.17
2022-10-11T04:24:23.121Z,45.28
2022-10-11T04:26:49.793Z,47.65
2022-10-11T04:29:16.477Z,48.10
2022-10-11T04:31:43.255Z,40.83
2022-10-11T04:34:09.924Z,48.60
2022-10-11T04:36:36.721Z,43.30
2022-10-11T04:39:03.512Z,38.13
2022-10-11T04:41:30.208Z,43.35
2022-10-11T04:43:56.975Z,40.92
2022-10-11T04:46:24.146Z,42.88
2022-10-11T04:48:51.345Z,39.80
2022-10-11T04:51:18.252Z,41.00
2022-10-11T04:53:45.028Z,37.53
2022-10-11T04:56:12.005Z,39.88
2022-10-11T04:58:42.335Z,38.60
2022-10-11T05:01:09.311Z,41.30
2022-10-11T05:03:36.691Z,39.03
2022-10-11T05:06:05.916Z,36.00
2022-10-11T05:08:33.584Z,40.25
2022-10-11T05:11:02.585Z,37.20
2022-10-11T05:13:30.556Z,37.53
2022-10-11T05:15:57.765Z,35.65
2022-10-11T05:18:24.652Z,36.50
2022-10-11T05:21:01.895Z,35.63
2022-10-11T05:23:29.795Z,36.97
2022-10-11T05:25:56.836Z,33.78
2022-10-11T05:28:23.743Z,32.00
2022-10-11T05:30:50.528Z,32.05
2022-10-11T05:33:17.288Z,36.15
2022-10-11T05:35:44.426Z,29.50
2022-10-11T05:38:11.407Z,32.42
2022-10-11T05:40:38.998Z,35.95
2022-10-11T05:43:06.239Z,33.05
2022-10-11T05:45:36.846Z,29.00
2022-10-11T05:48:03.660Z,28.00
2022-10-11T05:50:30.525Z,31.70
2022-10-11T05:52:57.866Z,27.17
2022-10-11T05:55:24.597Z,28.50
2022-10-11T05:57:55.772Z,29.67
2022-10-11T06:00:24.209Z,31.83
2022-10-11T06:02:50.908Z,36.15
2022-10-11T06:05:17.992Z,32.15
2022-10-11T06:07:44.730Z,30.52
2022-10-11T06:10:11.369Z,32.90
2022-10-11T06:12:38.784Z,28.38
2022-10-11T06:15:06.721Z,29.60
2022-10-11T06:17:33.504Z,31.27
2022-10-11T06:20:00.163Z,30.42
2022-10-11T06:22:27.428Z,32.83
2022-10-11T06:24:54.158Z,36.58
2022-10-11T06:27:20.883Z,28.73
2022-10-11T06:29:47.570Z,35.08
2022-10-11T06:32:14.323Z,32.42
2022-10-11T06:34:41.105Z,32.92
2022-10-11T06:37:07.915Z,30.88
2022-10-11T06:39:34.959Z,32.85
2022-10-11T06:42:01.885Z,35.50
2022-10-11T06:44:29.300Z,39.65
2022-10-11T06:46:55.995Z,34.30
2022-10-11T06:49:23.639Z,35.03
2022-10-11T06:51:50.864Z,34.75
2022-10-11T06:54:17.700Z,33.88
2022-10-11T06:56:45.676Z,34.35
2022-10-11T06:59:13.482Z,39.05
2022-10-11T07:01:40.508Z,36.08
2022-10-11T07:04:08.089Z,37.33
2022-10-11T07:06:39.217Z,36.17
2022-10-11T07:09:07.132Z,40.55
2022-10-11T07:11:34.872Z,34.92
2022-10-11T07:14:07.425Z,32.70
2022-10-11T07:16:36.016Z,34.97
2022-10-11T07:19:04.940Z,35.58
2022-10-11T07:21:33.393Z,35.20
2022-10-11T07:24:00.743Z,33.55
2022-10-11T07:26:31.299Z,33.80
2022-10-11T07:29:00.768Z,32.95
2022-10-11T07:31:27.636Z,32.53
2022-10-11T07:33:54.653Z,34.78
2022-10-11T07:36:23.220Z,32.60
2022-10-11T07:38:50.526Z,36.70
2022-10-11T07:41:17.339Z,31.15
2022-10-11T07:43:44.255Z,31.95
2022-10-11T07:46:11.210Z,30.23
2022-10-11T07:48:38.678Z,30.63
2022-10-11T07:51:26.361Z,32.28
2022-10-11T07:53:56.077Z,31.50
2022-10-11T07:56:28.266Z,29.52
2022-10-11T07:59:00.533Z,36.08
2022-10-11T08:01:28.636Z,33.03
2022-10-11T08:03:59.039Z,36.13
2022-10-11T08:06:30.150Z,30.75
2022-10-11T08:08:59.514Z,28.92
2022-10-11T08:11:32.432Z,31.25
2022-10-11T08:14:01.080Z,31.10
2022-10-11T08:16:28.097Z,32.35
2022-10-11T08:18:56.836Z,31.50
2022-10-11T08:21:24.190Z,27.25
2022-10-11T08:23:50.944Z,22.95
2022-10-11T08:26:17.891Z,24.85
2022-10-11T08:28:44.694Z,37.65
2022-10-11T08:31:16.194Z,30.15
2022-10-11T08:33:43.402Z,26.80
2022-10-11T08:36:10.928Z,26.42
2022-10-11T08:38:39.224Z,26.67
2022-10-11T08:41:26.897Z,27.33
2022-10-11T08:44:11.855Z,23.90
2022-10-11T08:46:39.892Z,23.90
2022-10-11T08:49:09.766Z,22.65
2022-10-11T08:51:52.474Z,23.17
2022-10-11T08:54:46.871Z,27.95
2022-10-11T08:57:21.020Z,22.48
2022-10-11T08:59:57.850Z,24.55
2022-10-11T09:03:08.096Z,25.45
2022-10-11T09:05:46.435Z,29.65
2022-10-11T09:15:01.226Z,33.95
2022-10-11T09:18:05.007Z,29.48
2022-10-11T09:20:44.593Z,27.42
2022-10-11T09:23:23.308Z,26.10
2022-10-11T09:26:05.616Z,28.98
2022-10-11T09:28:47.680Z,28.77
2022-10-11T09:31:14.716Z,27.63
2022-10-11T09:33:44.035Z,30.40
2022-10-11T09:36:32.343Z,25.25
2022-10-11T09:39:06.338Z,27.10
2022-10-11T09:42:00.678Z,28.42
2022-10-11T09:44:31.250Z,23.27
2022-10-11T09:46:58.887Z,21.40
2022-10-11T09:49:32.160Z,29.85
2022-10-11T09:52:02.476Z,21.95
2022-10-11T09:55:02.068Z,20.05
2022-10-11T09:57:31.439Z,17.25
2022-10-11T10:00:16.737Z,22.70
2022-10-11T10:02:49.306Z,28.95
2022-10-11T10:05:20.572Z,22.95
2022-10-11T10:08:08.864Z,21.25
2022-10-11T10:10:39.047Z,22.00
2022-10-11T10:13:19.035Z,19.25
2022-10-11T10:15:48.516Z,21.20
2022-10-11T10:18:37.517Z,17.48
2022-10-11T10:21:10.426Z,21.17
2022-10-11T10:23:37.701Z,18.55
2022-10-11T10:26:17.837Z,20.63
2022-10-11T10:29:10.497Z,23.02
2022-10-11T10:32:13.313Z,18.50
2022-10-11T10:34:52.820Z,16.50
2022-10-11T10:37:43.952Z,18.13
2022-10-11T10:40:28.945Z,17.58
2022-10-11T10:42:55.730Z,21.00
2022-10-11T10:45:28.294Z,19.10
2022-10-11T10:48:41.729Z,17.23
2022-10-11T10:51:37.107Z,20.42
2022-10-11T10:54:14.048Z,20.45
2022-10-11T10:57:06.183Z,18.00
2022-10-11T10:59:46.313Z,18.75
2022-10-11T11:02:47.174Z,19.67
2022-10-11T11:05:31.593Z,20.08
2022-10-11T11:08:10.187Z,21.17
2022-10-11T11:11:07.331Z,17.95
2022-10-11T11:13:47.165Z,14.88
2022-10-11T11:16:40.859Z,17.40
2022-10-11T11:19:13.863Z,13.68
2022-10-11T11:21:59.599Z,19.40
2022-10-11T11:24:35.318Z,16.48
2022-10-11T11:27:14.590Z,14.93
2022-10-11T11:29:56.416Z,15.23
2022-10-11T11:32:44.852Z,12.82
2022-10-11T11:35:36.813Z,15.02
2022-10-11T11:38:32.939Z,17.52
2022-10-11T11:41:02.826Z,15.43
2022-10-11T11:43:38.788Z,15.85
2022-10-11T11:46:13.863Z,22.77
2022-10-11T11:48:41.152Z,13.63
2022-10-11T11:51:37.390Z,20.45
2022-10-11T11:54:48.882Z,18.92
2022-10-11T11:57:36.929Z,16.85
2022-10-11T12:00:13.181Z,13.52
2022-10-11T12:03:09.633Z,14.93
2022-10-11T12:05:36.822Z,17.58
2022-10-11T12:08:06.055Z,13.05
2022-10-11T12:10:32.829Z,12.02
2022-10-11T12:13:20.129Z,12.52
2022-10-11T12:16:10.166Z,15.60
2022-10-11T12:18:50.840Z,15.30
2022-10-11T12:21:22.607Z,9.90
2022-10-11T12:23:52.427Z,13.60
2022-10-11T12:26:28.023Z,15.77
2022-10-11T12:29:00.809Z,11.02
2022-10-11T12:31:32.325Z,11.73
2022-10-11T12:34:02.395Z,10.75
2022-10-11T12:36:32.088Z,8.05
2022-10-11T12:39:20.544Z,12.20
2022-10-11T12:41:55.015Z,9.77
2022-10-11T12:44:23.321Z,11.48
2022-10-11T12:46:55.650Z,9.32
2022-10-11T12:49:25.386Z,13.93
2022-10-11T12:52:00.011Z,11.00
2022-10-11T12:57:12.126Z,11.65
2022-10-11T12:59:45.067Z,7.78
2022-10-11T13:02:36.336Z,12.23
2022-10-11T13:05:22.488Z,10.88
2022-10-11T13:07:50.710Z,13.70
2022-10-11T13:10:24.406Z,12.23
2022-10-11T13:12:53.113Z,8.47
2022-10-11T13:15:22.426Z,11.82
2022-10-11T13:17:50.387Z,15.30
2022-10-11T13:20:17.446Z,11.38
2022-10-11T13:22:49.858Z,9.15
2022-10-11T13:25:23.599Z,9.90
2022-10-11T13:27:53.218Z,7.10
2022-10-11T13:30:26.495Z,10.32
2022-10-11T13:32:54.090Z,10.85
2022-10-11T13:35:28.235Z,10.88
2022-10-11T13:37:55.353Z,9.82
2022-10-11T13:40:23.292Z,7.65
2022-10-11T13:42:52.350Z,11.25
2022-10-11T13:45:24.696Z,9.07
2022-10-11T13:47:54.155Z,10.48
2022-10-11T13:50:34.238Z,7.00
2022-10-11T13:53:08.446Z,6.45
2022-10-11T13:55:42.707Z,9.00
2022-10-11T13:58:21.531Z,8.98
2022-10-11T14:00:55.504Z,10.68
2022-10-11T14:03:24.774Z,7.83
2022-10-11T14:05:59.983Z,9.27
2022-10-11T14:08:47.969Z,9.25
2022-10-11T14:11:15.665Z,11.18
2022-10-11T14:13:42.252Z,9.95
2022-10-11T14:16:13.210Z,11.98
2022-10-11T14:18:51.491Z,11.13
2022-10-11T14:21:43.318Z,11.25
2022-10-11T14:24:13.045Z,11.27
2022-10-11T14:26:42.765Z,10.40
2022-10-11T14:29:17.919Z,13.73
2022-10-11T14:31:44.675Z,11.23
2022-10-11T14:34:20.702Z,7.75
2022-10-11T14:36:48.032Z,10.82
2022-10-11T14:39:17.968Z,9.77
2022-10-11T14:41:45.129Z,7.65
2022-10-11T14:44:12.395Z,15.35
2022-10-11T14:46:40.787Z,7.90
2022-10-11T14:49:22.071Z,9.02
2022-10-11T14:51:50.209Z,11.10
2022-10-11T14:54:18.996Z,10.15
2022-10-11T14:56:46.513Z,9.18
2022-10-11T14:59:16.472Z,7.05
2022-10-11T15:01:43.389Z,5.93
2022-10-11T15:04:10.438Z,8.20
2022-10-11T15:06:40.454Z,8.70
2022-10-11T15:09:08.002Z,11.00
2022-10-11T15:11:37.750Z,10.20
2022-10-11T15:14:06.281Z,9.00
2022-10-11T15:16:33.983Z,14.32
2022-10-11T15:19:00.717Z,9.35
2022-10-11T15:21:28.969Z,9.10
2022-10-11T15:23:56.695Z,7.72
2022-10-11T15:26:29.055Z,7.30
2022-10-11T15:28:57.202Z,6.38
2022-10-11T15:31:23.978Z,8.40
2022-10-11T15:33:50.925Z,8.52
2022-10-11T15:36:21.196Z,7.93
2022-10-11T15:38:48.588Z,6.18
2022-10-11T15:41:17.412Z,8.10
2022-10-11T15:43:45.337Z,8.57
2022-10-11T15:46:17.698Z,5.82
2022-10-11T15:48:45.711Z,8.60
2022-10-11T15:51:12.603Z,5.80
2022-10-11T15:53:39.575Z,6.50
2022-10-11T15:56:09.524Z,8.27
2022-10-11T15:58:38.889Z,7.65
2022-10-11T16:01:16.975Z,9.00
2022-10-11T16:03:44.978Z,6.72
2022-10-11T16:06:12.904Z,8.85
2022-10-11T16:08:40.018Z,5.82
2022-10-11T16:11:08.158Z,6.05
2022-10-11T16:13:35.923Z,7.80
2022-10-11T16:16:05.011Z,6.13
2022-10-11T16:18:35.399Z,8.85
2022-10-11T16:21:07.862Z,7.72
2022-10-11T16:23:35.397Z,6.60
2022-10-11T16:26:05.570Z,12.98
2022-10-11T16:28:33.354Z,7.97
2022-10-11T16:31:00.336Z,6.18
2022-10-11T16:33:27.092Z,6.78
2022-10-11T16:36:14.407Z,7.35
2022-10-11T16:38:41.089Z,6.00
2022-10-11T16:41:07.750Z,7.55
2022-10-11T16:43:34.480Z,6.80
2022-10-11T16:46:01.205Z,7.80
2022-10-11T16:48:27.950Z,8.80
2022-10-11T16:50:54.673Z,7.80
2022-10-11T16:53:21.893Z,5.18
2022-10-11T16:55:48.955Z,7.85
2022-10-11T16:58:15.871Z,9.30
2022-10-11T17:00:43.158Z,8.82
2022-10-11T17:03:09.903Z,8.10
2022-10-11T17:05:37.764Z,7.05
2022-10-11T17:08:04.523Z,8.98
2022-10-11T17:10:48.080Z,12.43
2022-10-11T17:13:14.759Z,9.27
2022-10-11T17:15:41.671Z,8.57
2022-10-11T17:18:08.367Z,11.00
2022-10-11T17:20:35.101Z,7.70
2022-10-11T17:23:01.838Z,9.52
2022-10-11T17:25:28.599Z,8.20
2022-10-11T17:27:56.232Z,13.73
2022-10-11T17:30:24.328Z,9.88
2022-10-11T17:32:52.076Z,9.07
2022-10-11T17:35:19.034Z,10.98
2022-10-11T17:37:45.973Z,8.48
2022-10-11T17:40:12.655Z,8.52
2022-10-11T17:42:39.283Z,12.20
2022-10-11T17:45:06.726Z,11.07
2022-10-11T17:47:33.717Z,9.85
2022-10-11T17:50:00.386Z,12.75
2022-10-11T17:52:27.287Z,14.98
2022-10-11T17:54:53.954Z,9.95
2022-10-11T17:57:20.595Z,12.98
2022-10-11T17:59:47.240Z,14.43
2022-10-11T18:02:14.629Z,11.32
2022-10-11T18:04:41.946Z,15.38
2022-10-11T18:07:12.073Z,12.93
2022-10-11T18:09:38.730Z,14.57
2022-10-11T18:12:05.516Z,13.93
2022-10-11T18:14:32.252Z,15.50
2022-10-11T18:16:58.970Z,14.00
2022-10-11T18:19:25.664Z,12.77
2022-10-11T18:21:52.462Z,15.48
2022-10-11T18:24:19.116Z,17.10
2022-10-11T18:26:46.237Z,18.25
2022-10-11T18:29:13.268Z,18.30
2022-10-11T18:31:40.876Z,10.95
2022-10-11T18:34:10.695Z,16.60
2022-10-11T18:36:38.031Z,15.60
2022-10-11T18:39:07.656Z,12.85
2022-10-11T18:41:35.265Z,14.73
2022-10-11T18:44:05.358Z,17.30
2022-10-11T18:46:32.514Z,14.82
2022-10-11T18:49:01.889Z,15.75
2022-10-11T18:51:36.622Z,15.50
2022-10-11T18:54:05.142Z,14.43
2022-10-11T18:56:32.935Z,19.45
2022-10-11T18:59:00.090Z,16.33
2022-10-11T19:01:28.301Z,15.43
2022-10-11T19:03:57.288Z,15.63
2022-10-11T19:06:27.377Z,14.90
2022-10-11T19:08:58.967Z,16.80
2022-10-11T19:11:25.821Z,16.65
2022-10-11T19:14:02.907Z,14.95
2022-10-11T19:16:30.173Z,14.55
2022-10-11T19:18:57.677Z,17.17
2022-10-11T19:21:24.870Z,18.35
2022-10-11T19:23:52.274Z,17.65
2022-10-11T19:26:26.236Z,14.85
2022-10-11T19:29:07.952Z,19.35
2022-10-11T19:31:36.996Z,22.60
2022-10-11T19:34:03.714Z,17.02
2022-10-11T19:36:35.567Z,17.45
2022-10-11T19:39:04.908Z,20.40
2022-10-11T19:41:31.759Z,22.70
2022-10-11T19:43:58.534Z,20.95
2022-10-11T19:46:53.443Z,16.40
2022-10-11T19:49:15.726Z,20.25
2022-10-11T19:51:42.478Z,16.27
2022-10-11T19:54:12.028Z,24.75
2022-10-11T19:56:38.810Z,17.17
2022-10-11T19:59:08.500Z,18.08
2022-10-11T20:01:36.392Z,19.00
2022-10-11T20:04:06.292Z,16.85
2022-10-11T20:06:38.543Z,19.75
2022-10-11T20:11:53.851Z,20.70
2022-10-11T20:14:20.595Z,20.70
2022-10-11T20:16:50.065Z,20.42
2022-10-11T20:19:17.301Z,19.20
2022-10-11T20:21:44.930Z,20.90
2022-10-11T20:24:11.634Z,20.35
2022-10-11T20:26:39.089Z,20.75
2022-10-11T20:29:06.232Z,22.77
2022-10-11T20:31:34.754Z,17.83
2022-10-11T20:34:04.891Z,18.25
2022-10-11T20:36:32.984Z,21.15
2022-10-11T20:39:00.440Z,22.02
2022-10-11T20:41:31.639Z,23.33
2022-10-11T20:43:59.834Z,20.10
2022-10-11T20:46:32.968Z,21.27
2022-10-11T20:49:08.026Z,31.20
2022-10-11T20:51:37.070Z,27.83
2022-10-11T20:54:04.774Z,21.00
2022-10-11T20:56:31.910Z,24.05
2022-10-11T20:58:59.139Z,27.60
2022-10-11T21:01:28.236Z,23.90
2022-10-11T21:03:58.120Z,25.15
2022-10-11T21:06:25.339Z,26.35
2022-10-11T21:08:53.871Z,25.90
2022-10-11T21:11:20.520Z,24.15
2022-10-11T21:13:47.329Z,24.63
2022-10-11T21:16:16.424Z,23.05
2022-10-11T21:18:43.204Z,30.85
2022-10-11T21:21:12.548Z,27.63
2022-10-11T21:23:39.979Z,24.48
2022-10-11T21:26:09.468Z,30.65
2022-10-11T21:28:36.633Z,26.38
2022-10-11T21:31:08.371Z,24.77
2022-10-11T21:33:35.964Z,26.25
2022-10-11T21:36:07.595Z,27.33
2022-10-11T21:38:35.143Z,29.52
2022-10-11T21:41:06.374Z,29.60
2022-10-11T21:43:35.731Z,28.02
2022-10-11T21:46:15.924Z,27.60
2022-10-11T21:48:42.780Z,28.63
2022-10-11T21:51:15.569Z,27.02
2022-10-11T21:53:42.276Z,26.38
2022-10-11T21:56:09.200Z,24.83
2022-10-11T21:58:35.894Z,25.00
2022-10-11T22:01:03.163Z,32.58
2022-10-11T22:03:29.891Z,24.92
2022-10-11T22:05:56.532Z,27.58
2022-10-11T22:08:23.161Z,22.80
2022-10-11T22:10:56.159Z,26.58
2022-10-11T22:13:23.516Z,23.98
2022-10-11T22:15:50.346Z,23.85
2022-10-11T22:18:17.162Z,24.33
2022-10-11T22:20:43.965Z,26.52
2022-10-11T22:23:11.443Z,30.38
2022-10-11T22:25:39.120Z,22.77
2022-10-11T22:28:06.524Z,29.02
2022-10-11T22:30:33.644Z,21.95
2022-10-11T22:33:00.749Z,27.67
2022-10-11T22:35:27.486Z,26.60
2022-10-11T22:37:54.111Z,23.42
2022-10-11T22:40:21.536Z,26.20
2022-10-11T22:42:48.481Z,28.40
2022-10-11T22:45:15.236Z,27.17
2022-10-11T22:47:41.971Z,23.40
2022-10-11T22:50:08.933Z,29.05
2022-10-11T22:52:35.567Z,21.90
2022-10-11T22:55:02.292Z,24.63
2022-10-11T22:57:29.528Z,24.20
2022-10-11T22:59:56.273Z,25.60
2022-10-11T23:02:22.907Z,27.67
2022-10-11T23:04:49.616Z,25.77
2022-10-11T23:07:16.298Z,23.63
2022-10-11T23:09:43.001Z,26.00
2022-10-11T23:12:09.696Z,26.50
2022-10-11T23:14:36.700Z,27.70
2022-10-11T23:17:03.428Z,26.25
2022-10-11T23:19:30.162Z,23.98
2022-10-11T23:21:56.900Z,25.05
2022-10-11T23:24:23.850Z,25.67
2022-10-11T23:26:50.477Z,28.25
2022-10-11T23:29:17.225Z,28.45
2022-10-11T23:31:47.174Z,22.00
2022-10-11T23:34:14.576Z,25.83
2022-10-11T23:36:41.264Z,26.60
2022-10-11T23:39:10.328Z,22.95
2022-10-11T23:41:37.019Z,27.10
2022-10-11T23:44:03.850Z,25.60
2022-10-11T23:46:30.748Z,22.17
2022-10-11T23:48:57.496Z,23.00
2022-10-11T23:51:24.157Z,24.40
2022-10-11T23:53:50.937Z,26.08
2022-10-11T23:56:17.694Z,27.00
2022-10-11T23:58:44.382Z,23.77
